Terminal Aerodrome Forecast
Issued by NWS

Home | Current Version | Previous Version | Text Only | Print | Product List | Glossary On
Versions: 1 2 3 4 5 6 7 8 9 10 11 12 13 14 15 16 17 18 19 20 21 22
000
FTUS43 KAPX 242320
TAFMBL
TAF
KMBL 242320Z 2500/2524 32010KT 3SM -RASN BR OVC009
     FM250200 32011KT 1SM -SN OVC006
     FM251400 31010KT 3SM -SN OVC015
      AMD LTD TO CLD VIS AND WIND=

USA.gov is the U.S. government's official web portal to all federal, state and local government web resources and services.